Time;durP1;ratioP1;P1;durP2;ratioP2;P2;SDS_P1;SDS_P2;PMS_P1;PMS_P2;Temp;Humidity;BMP_temperature;BMP_pressure;BME280_temperature;BME280_humidity;BME280_pressure;Samples;Min_cycle;Max_cycle;Signal;HPM_P1;HPM_P2
2021/12/02 00:01:27;;;;;;;7.33;1.60;;;4.10;99.90;;;;;;4918947;29;20482;-63
2021/12/02 00:03:57;;;;;;;9.60;1.60;;;4.10;99.90;;;;;;4913876;29;20468;-63
2021/12/02 00:06:25;;;;;;;8.00;1.60;;;4.10;99.90;;;;;;4913058;29;20544;-63
2021/12/02 00:08:54;;;;;;;5.97;1.70;;;4.10;99.90;;;;;;4918451;29;20479;-63
2021/12/02 00:11:22;;;;;;;6.80;1.20;;;4.10;99.90;;;;;;4921937;29;20917;-63
2021/12/02 00:13:55;;;;;;;9.70;1.47;;;4.10;99.90;;;;;;4918682;29;20478;-63
2021/12/02 00:16:29;;;;;;;7.80;1.47;;;4.10;99.90;;;;;;4911557;29;20520;-64
2021/12/02 00:21:49;;;;;;;4.60;1.20;;;4.20;99.90;;;;;;4906688;29;21008;-64
2021/12/02 00:24:19;;;;;;;7.97;1.50;;;4.20;99.90;;;;;;4918699;29;21044;-64
2021/12/02 00:26:49;;;;;;;8.93;1.60;;;4.20;99.90;;;;;;4911328;29;20493;-62
2021/12/02 00:29:20;;;;;;;6.23;1.40;;;4.10;99.90;;;;;;4919466;29;20483;-64
2021/12/02 00:31:50;;;;;;;3.23;1.03;;;4.00;99.90;;;;;;4920174;29;20492;-64
2021/12/02 00:34:22;;;;;;;8.97;1.80;;;3.90;99.90;;;;;;4921053;29;20474;-64
2021/12/02 00:36:50;;;;;;;9.30;1.70;;;3.90;99.90;;;;;;4915592;29;20496;-64
2021/12/02 00:39:20;;;;;;;4.97;1.27;;;3.80;99.90;;;;;;4920274;29;21037;-63
2021/12/02 00:41:49;;;;;;;8.67;1.33;;;3.70;99.90;;;;;;4909621;29;20464;-64
2021/12/02 00:44:19;;;;;;;4.80;1.20;;;3.70;99.90;;;;;;4916512;29;20485;-64
2021/12/02 00:46:47;;;;;;;7.07;1.27;;;3.60;99.90;;;;;;4915137;29;20559;-64
2021/12/02 00:49:18;;;;;;;6.20;1.10;;;3.60;99.90;;;;;;4921455;29;20926;-64
2021/12/02 00:51:53;;;;;;;4.63;1.03;;;3.60;99.90;;;;;;4916554;29;20544;-63
2021/12/02 00:54:23;;;;;;;5.20;1.17;;;3.60;99.90;;;;;;4902518;29;20883;-63
2021/12/02 00:56:52;;;;;;;6.47;1.50;;;3.50;99.90;;;;;;4915786;29;20486;-63
2021/12/02 00:59:21;;;;;;;6.53;1.30;;;3.50;99.90;;;;;;4917515;29;20483;-63
2021/12/02 01:01:51;;;;;;;4.97;1.10;;;3.40;99.90;;;;;;4910683;29;20527;-64
2021/12/02 01:04:23;;;;;;;6.83;1.10;;;3.40;99.90;;;;;;4917908;29;20470;-63
2021/12/02 01:06:52;;;;;;;4.43;0.93;;;3.30;99.90;;;;;;4910604;29;20486;-63
2021/12/02 01:09:21;;;;;;;3.70;0.77;;;3.30;99.90;;;;;;4921133;29;20869;-63
2021/12/02 01:11:50;;;;;;;5.67;1.03;;;3.20;99.90;;;;;;4915911;29;20508;-64
2021/12/02 01:14:18;;;;;;;5.87;1.13;;;3.20;99.90;;;;;;4913900;29;20992;-64
2021/12/02 01:16:46;;;;;;;3.47;0.73;;;3.20;99.90;;;;;;4915168;29;20540;-63
2021/12/02 01:19:15;;;;;;;4.37;0.70;;;3.20;99.90;;;;;;4921652;29;20478;-63
2021/12/02 01:21:44;;;;;;;4.50;1.03;;;3.20;99.90;;;;;;4915555;29;20515;-64
2021/12/02 01:24:15;;;;;;;2.77;0.90;;;3.20;99.90;;;;;;4920121;29;20486;-64
2021/12/02 01:26:50;;;;;;;2.13;0.60;;;3.20;99.90;;;;;;4906337;29;20480;-62
2021/12/02 01:29:21;;;;;;;4.50;0.90;;;3.20;99.90;;;;;;4918277;29;20498;-63
2021/12/02 01:31:51;;;;;;;5.13;1.27;;;3.20;99.90;;;;;;4911998;29;20601;-63
2021/12/02 01:34:24;;;;;;;3.60;0.93;;;3.20;99.90;;;;;;4917049;29;20825;-64
2021/12/02 01:36:54;;;;;;;4.77;0.60;;;3.20;99.90;;;;;;4914112;29;20568;-63
2021/12/02 01:39:24;;;;;;;5.27;0.90;;;3.20;99.90;;;;;;4915646;29;20489;-63
2021/12/02 01:41:55;;;;;;;2.77;0.67;;;3.20;99.90;;;;;;4917024;29;20771;-63
2021/12/02 01:44:25;;;;;;;4.80;0.90;;;3.20;99.90;;;;;;4921289;29;20514;-64
2021/12/02 01:46:56;;;;;;;2.17;0.60;;;3.20;99.90;;;;;;4911667;29;20551;-63
2021/12/02 01:49:28;;;;;;;6.23;0.90;;;3.20;99.90;;;;;;4921327;29;20561;-63
2021/12/02 01:51:57;;;;;;;5.30;0.97;;;3.20;99.90;;;;;;4912535;29;21089;-64
2021/12/02 01:54:27;;;;;;;5.43;1.10;;;3.20;99.90;;;;;;4913118;29;20486;-63
2021/12/02 01:57:04;;;;;;;2.37;0.80;;;3.20;99.90;;;;;;4915236;29;20512;-64
2021/12/02 01:59:35;;;;;;;6.80;1.20;;;3.20;99.90;;;;;;4910990;29;20491;-63
2021/12/02 02:02:05;;;;;;;4.83;0.70;;;3.10;99.90;;;;;;4913799;29;21123;-63
2021/12/02 02:04:34;;;;;;;6.93;0.83;;;3.10;99.90;;;;;;4916682;29;20480;-63
2021/12/02 02:07:04;;;;;;;4.60;0.60;;;3.10;99.90;;;;;;4911772;29;20485;-64
2021/12/02 02:09:35;;;;;;;4.50;0.80;;;3.10;99.90;;;;;;4915067;29;20880;-64
2021/12/02 02:12:07;;;;;;;2.53;0.60;;;3.10;99.90;;;;;;4916486;29;20491;-64
2021/12/02 02:14:36;;;;;;;2.60;0.50;;;3.10;99.90;;;;;;4913550;29;20485;-64
2021/12/02 02:17:14;;;;;;;3.40;0.90;;;3.10;99.90;;;;;;4915805;29;20481;-64
2021/12/02 02:19:43;;;;;;;2.50;0.60;;;3.10;99.90;;;;;;4914151;29;20480;-64
2021/12/02 02:22:18;;;;;;;3.10;0.70;;;3.10;99.90;;;;;;4911698;29;20485;-63
2021/12/02 02:24:47;;;;;;;2.50;0.70;;;3.00;99.90;;;;;;4916082;29;20473;-63
2021/12/02 02:27:16;;;;;;;8.77;1.10;;;3.00;99.90;;;;;;4913046;29;20489;-63
2021/12/02 02:29:44;;;;;;;2.40;0.60;;;2.90;99.90;;;;;;4919672;29;20506;-63
2021/12/02 02:32:12;;;;;;;1.17;0.40;;;2.80;99.90;;;;;;4915924;29;20497;-62
2021/12/02 02:34:41;;;;;;;2.20;0.60;;;2.80;99.90;;;;;;4916980;29;20568;-64
2021/12/02 02:37:09;;;;;;;4.40;0.70;;;2.80;99.90;;;;;;4914884;29;20485;-64
2021/12/02 02:39:38;;;;;;;1.57;0.50;;;2.80;99.90;;;;;;4916631;29;20555;-63
2021/12/02 02:42:08;;;;;;;1.50;0.53;;;2.80;99.90;;;;;;4919254;29;20485;-63
2021/12/02 02:44:38;;;;;;;4.43;0.53;;;2.80;99.90;;;;;;4918563;29;20468;-63
2021/12/02 02:47:06;;;;;;;3.80;0.50;;;2.70;99.90;;;;;;4918149;29;21002;-64
2021/12/02 02:49:34;;;;;;;3.67;0.67;;;2.70;99.90;;;;;;4923278;29;20477;-64
2021/12/02 02:52:04;;;;;;;1.47;0.60;;;2.70;99.90;;;;;;4913104;29;20915;-63
2021/12/02 02:54:32;;;;;;;2.40;0.70;;;2.70;99.90;;;;;;4916169;29;20850;-63
2021/12/02 02:57:04;;;;;;;0.73;0.47;;;2.70;99.90;;;;;;4920758;29;20487;-63
2021/12/02 02:59:40;;;;;;;1.50;0.57;;;2.80;99.90;;;;;;4917137;29;20516;-64
2021/12/02 03:02:16;;;;;;;3.73;0.57;;;2.70;99.90;;;;;;4913250;29;20541;-63
2021/12/02 03:04:52;;;;;;;0.77;0.53;;;2.70;99.90;;;;;;4918531;29;20827;-63
2021/12/02 03:07:28;;;;;;;7.27;0.70;;;2.60;99.90;;;;;;4911674;29;20571;-64
2021/12/02 03:10:07;;;;;;;2.30;0.40;;;2.70;99.90;;;;;;4922191;29;20484;-64
2021/12/02 03:12:39;;;;;;;2.20;0.53;;;2.70;99.90;;;;;;4920000;29;21073;-63
2021/12/02 03:17:54;;;;;;;1.50;0.40;;;2.70;99.90;;;;;;4921471;29;20592;-63
2021/12/02 03:20:22;;;;;;;3.27;0.70;;;2.70;99.90;;;;;;4926213;29;20976;-63
2021/12/02 03:22:50;;;;;;;1.07;0.50;;;2.70;99.90;;;;;;4916771;29;21029;-64
2021/12/02 03:25:18;;;;;;;1.80;0.60;;;2.70;99.90;;;;;;4918168;29;20475;-63
2021/12/02 03:27:47;;;;;;;3.27;0.60;;;2.60;99.90;;;;;;4918060;29;20572;-62
2021/12/02 03:30:18;;;;;;;2.90;0.90;;;2.60;99.90;;;;;;4917429;29;20472;-63
2021/12/02 03:32:46;;;;;;;3.67;0.60;;;2.60;99.90;;;;;;4913173;29;20491;-61
2021/12/02 03:35:14;;;;;;;4.67;0.80;;;2.60;99.90;;;;;;4900554;29;20523;-64
2021/12/02 03:37:42;;;;;;;1.87;0.60;;;2.50;99.90;;;;;;4917948;29;20519;-63
2021/12/02 03:40:12;;;;;;;2.50;0.70;;;2.40;99.90;;;;;;4921090;29;20487;-63
2021/12/02 03:42:52;;;;;;;5.17;1.10;;;2.40;99.90;;;;;;4904602;29;20482;-64
2021/12/02 03:45:30;;;;;;;1.27;0.50;;;2.30;99.90;;;;;;4918169;29;20570;-64
2021/12/02 03:48:00;;;;;;;3.27;0.70;;;2.30;99.90;;;;;;4915612;29;20561;-63
2021/12/02 03:50:28;;;;;;;8.53;1.03;;;2.20;99.90;;;;;;4920576;29;20476;-64
2021/12/02 03:52:56;;;;;;;6.43;1.03;;;2.20;99.90;;;;;;4917482;29;20545;-64
2021/12/02 03:55:24;;;;;;;3.27;0.87;;;2.20;99.90;;;;;;4912760;29;20984;-63
2021/12/02 03:57:54;;;;;;;5.37;0.60;;;2.10;99.90;;;;;;4921624;29;20486;-61
2021/12/02 04:00:23;;;;;;;5.23;0.80;;;2.10;99.90;;;;;;4912966;29;20483;-63
2021/12/02 04:02:54;;;;;;;2.27;0.60;;;2.10;99.90;;;;;;4919442;29;20500;-62
2021/12/02 04:05:22;;;;;;;4.27;0.80;;;2.10;99.90;;;;;;4913604;29;20920;-62
2021/12/02 04:07:51;;;;;;;3.63;0.80;;;2.10;99.90;;;;;;4905501;29;20486;-63
2021/12/02 04:10:20;;;;;;;5.73;1.00;;;2.00;99.90;;;;;;4914837;29;20982;-64
2021/12/02 04:12:54;;;;;;;7.37;1.30;;;2.00;99.90;;;;;;4918660;29;20708;-64
2021/12/02 04:15:26;;;;;;;2.57;0.77;;;2.00;99.90;;;;;;4913096;29;20567;-63
2021/12/02 04:17:55;;;;;;;3.93;0.93;;;2.00;99.90;;;;;;4915698;29;20541;-63
2021/12/02 04:20:24;;;;;;;4.73;0.90;;;2.00;99.90;;;;;;4915932;29;20474;-63
2021/12/02 04:22:54;;;;;;;11.13;1.67;;;1.90;99.90;;;;;;4918534;29;20477;-63
2021/12/02 04:25:24;;;;;;;3.93;0.70;;;1.90;99.90;;;;;;4917472;29;20533;-64
2021/12/02 04:27:53;;;;;;;3.10;0.83;;;1.90;99.90;;;;;;4914757;29;20498;-63
2021/12/02 04:30:25;;;;;;;5.78;1.40;;;1.90;99.90;;;;;;4911127;29;20340;-63
2021/12/02 04:32:54;;;;;;;2.87;0.80;;;1.90;99.90;;;;;;4919542;29;20673;-64
2021/12/02 04:35:22;;;;;;;4.10;0.77;;;1.90;99.90;;;;;;4914441;29;20476;-63
2021/12/02 04:37:52;;;;;;;4.13;0.73;;;1.90;99.90;;;;;;4919399;29;20480;-63
2021/12/02 04:40:22;;;;;;;6.57;0.87;;;1.90;99.90;;;;;;4920775;29;20468;-63
2021/12/02 04:42:54;;;;;;;2.37;0.83;;;1.80;99.90;;;;;;4909685;29;21049;-63
2021/12/02 04:45:23;;;;;;;4.20;1.00;;;1.80;99.90;;;;;;4918650;29;20473;-63
2021/12/02 04:47:51;;;;;;;2.50;0.80;;;1.80;99.90;;;;;;4909949;29;20851;-64
2021/12/02 04:50:19;;;;;;;2.30;0.70;;;1.80;99.90;;;;;;4917575;29;20552;-64
2021/12/02 04:52:49;;;;;;;4.40;0.93;;;1.80;99.90;;;;;;4914563;29;20468;-62
2021/12/02 04:55:17;;;;;;;6.07;0.93;;;1.80;99.90;;;;;;4915149;29;20959;-63
2021/12/02 04:57:46;;;;;;;3.73;0.90;;;1.70;99.90;;;;;;4914057;29;20493;-63
2021/12/02 05:00:15;;;;;;;5.47;0.93;;;1.70;99.90;;;;;;4914113;29;20566;-63
2021/12/02 05:02:45;;;;;;;4.50;1.07;;;1.70;99.90;;;;;;4912209;29;20482;-64
2021/12/02 05:05:14;;;;;;;5.67;1.27;;;1.70;99.90;;;;;;4918181;29;21008;-64
2021/12/02 05:07:42;;;;;;;10.17;1.20;;;1.70;99.90;;;;;;4911634;29;20489;-63
2021/12/02 05:10:10;;;;;;;6.10;1.10;;;1.70;99.90;;;;;;4918571;29;20474;-63
2021/12/02 05:12:39;;;;;;;4.70;1.00;;;1.70;99.90;;;;;;4910719;29;20486;-64
2021/12/02 05:15:07;;;;;;;5.03;1.00;;;1.70;99.90;;;;;;4926685;29;20562;-63
2021/12/02 05:17:35;;;;;;;3.83;1.30;;;1.70;99.90;;;;;;4914088;29;20569;-63
2021/12/02 05:20:06;;;;;;;6.23;1.70;;;1.70;99.90;;;;;;4922951;29;20573;-63
2021/12/02 05:22:34;;;;;;;5.77;1.13;;;1.60;99.90;;;;;;4913759;29;20477;-63
2021/12/02 05:25:03;;;;;;;7.13;0.97;;;1.50;99.90;;;;;;4914885;29;20508;-64
2021/12/02 05:27:32;;;;;;;7.57;1.40;;;1.50;99.90;;;;;;4913403;29;20497;-63
2021/12/02 05:30:01;;;;;;;5.90;1.20;;;1.60;99.90;;;;;;4915356;29;20540;-63
2021/12/02 05:32:30;;;;;;;4.90;1.27;;;1.70;99.90;;;;;;4918035;29;20470;-63
2021/12/02 05:34:58;;;;;;;9.23;1.43;;;1.60;99.90;;;;;;4918950;29;20847;-63
2021/12/02 05:37:28;;;;;;;6.53;1.03;;;1.60;99.90;;;;;;4913789;29;20488;-63
2021/12/02 05:39:56;;;;;;;6.07;1.10;;;1.60;99.90;;;;;;4910943;29;20475;-63
2021/12/02 05:42:24;;;;;;;2.97;0.87;;;1.70;99.90;;;;;;4910893;29;20468;-62
2021/12/02 05:44:53;;;;;;;5.00;1.03;;;1.60;99.90;;;;;;4905806;29;20489;-62
2021/12/02 05:47:21;;;;;;;4.83;1.10;;;1.70;99.90;;;;;;4916423;29;20496;-63
2021/12/02 05:49:49;;;;;;;4.63;1.13;;;1.60;99.90;;;;;;4914436;29;20762;-63
2021/12/02 05:52:21;;;;;;;6.60;1.40;;;1.50;99.90;;;;;;4914947;29;20848;-63
2021/12/02 05:54:51;;;;;;;4.70;1.10;;;1.40;99.90;;;;;;4914623;29;20478;-63
2021/12/02 05:57:19;;;;;;;4.43;1.00;;;1.30;99.90;;;;;;4915813;29;20480;-63
2021/12/02 05:59:47;;;;;;;2.50;0.97;;;1.30;99.90;;;;;;4911937;29;20485;-64
2021/12/02 06:02:15;;;;;;;4.83;0.90;;;1.30;99.90;;;;;;4918173;29;20996;-63
2021/12/02 06:04:45;;;;;;;5.23;1.10;;;1.30;99.90;;;;;;4922676;29;20961;-63
2021/12/02 06:07:13;;;;;;;5.03;1.10;;;1.30;99.90;;;;;;4915929;29;20486;-62
2021/12/02 06:09:41;;;;;;;4.40;1.30;;;1.20;99.90;;;;;;4909700;29;20509;-63
2021/12/02 06:12:12;;;;;;;4.67;0.87;;;1.10;99.90;;;;;;4908505;29;20479;-63
2021/12/02 06:14:40;;;;;;;5.40;1.00;;;1.10;99.90;;;;;;4907200;29;20578;-63
2021/12/02 06:17:08;;;;;;;3.40;1.00;;;1.10;99.90;;;;;;4917134;29;20485;-63
2021/12/02 06:19:36;;;;;;;5.60;0.90;;;1.10;99.90;;;;;;4920568;29;20507;-63
2021/12/02 06:22:08;;;;;;;2.80;0.80;;;1.00;99.90;;;;;;4923682;29;20485;-63
2021/12/02 06:24:43;;;;;;;1.67;0.70;;;1.00;99.90;;;;;;4918625;29;20484;-64
2021/12/02 06:27:13;;;;;;;4.30;1.10;;;1.00;99.90;;;;;;4915098;29;20575;-62
2021/12/02 06:29:45;;;;;;;2.40;1.03;;;1.00;99.90;;;;;;4903996;29;20488;-62
2021/12/02 06:32:13;;;;;;;4.30;1.10;;;1.00;99.90;;;;;;4915591;29;20488;-63
2021/12/02 06:34:41;;;;;;;2.67;0.93;;;1.00;99.90;;;;;;4909323;29;20500;-63
2021/12/02 06:37:10;;;;;;;2.53;0.70;;;1.00;99.90;;;;;;4912895;29;20576;-63
2021/12/02 06:39:38;;;;;;;5.40;0.73;;;1.00;99.90;;;;;;4902210;29;20908;-63
2021/12/02 06:42:06;;;;;;;7.83;1.30;;;0.90;99.90;;;;;;4907371;29;21097;-63
2021/12/02 06:44:35;;;;;;;1.90;1.00;;;1.00;99.90;;;;;;4911575;29;20476;-63
2021/12/02 06:47:04;;;;;;;2.90;0.80;;;0.90;99.90;;;;;;4905912;29;20568;-63
2021/12/02 06:49:33;;;;;;;5.17;0.90;;;0.90;99.90;;;;;;4913274;29;20483;-63
2021/12/02 06:52:03;;;;;;;4.30;1.53;;;1.00;99.90;;;;;;4910742;29;20543;-61
2021/12/02 06:54:31;;;;;;;5.80;1.00;;;0.90;99.90;;;;;;4914890;29;20567;-63
2021/12/02 06:56:59;;;;;;;7.23;1.67;;;0.80;99.90;;;;;;4918204;29;20484;-64
2021/12/02 06:59:27;;;;;;;3.70;1.20;;;1.40;99.90;;;;;;4912857;29;20480;-63
2021/12/02 07:01:57;;;;;;;2.57;1.00;;;1.40;99.90;;;;;;4908343;29;20485;-63
2021/12/02 07:04:26;;;;;;;5.97;1.00;;;1.40;99.90;;;;;;4908961;29;20485;-63
2021/12/02 07:06:54;;;;;;;2.27;1.03;;;1.20;99.90;;;;;;4907234;29;20485;-63
2021/12/02 07:09:22;;;;;;;2.00;0.90;;;1.20;99.90;;;;;;4914828;29;20488;-63
2021/12/02 07:11:50;;;;;;;5.70;1.50;;;1.20;99.90;;;;;;4909763;29;20473;-63
2021/12/02 07:14:20;;;;;;;2.67;1.60;;;1.60;99.90;;;;;;4912658;29;20492;-63
2021/12/02 07:16:49;;;;;;;2.97;1.37;;;1.80;99.90;;;;;;4906768;29;20994;-63
2021/12/02 07:19:19;;;;;;;4.37;1.50;;;1.80;99.90;;;;;;4909980;29;20481;-63
2021/12/02 07:21:47;;;;;;;7.73;1.77;;;2.00;99.90;;;;;;4906415;29;20555;-63
2021/12/02 07:24:16;;;;;;;6.87;1.73;;;2.00;99.90;;;;;;4915231;29;21028;-63
2021/12/02 07:27:06;;;;;;;6.77;1.60;;;1.90;99.90;;;;;;4900353;29;20469;-63
2021/12/02 07:29:34;;;;;;;6.30;1.73;;;1.90;99.90;;;;;;4914343;29;20576;-62
2021/12/02 07:32:03;;;;;;;6.10;1.70;;;1.60;99.90;;;;;;4909281;29;20563;-63
2021/12/02 07:34:37;;;;;;;3.40;1.50;;;1.80;99.90;;;;;;4910693;29;20520;-63
2021/12/02 07:37:05;;;;;;;4.93;1.30;;;1.70;99.90;;;;;;4909553;29;20485;-62
2021/12/02 07:39:34;;;;;;;6.27;2.07;;;1.70;99.90;;;;;;4910638;29;20608;-62
2021/12/02 07:42:23;;;;;;;8.27;1.60;;;1.50;99.90;;;;;;4913208;29;20535;-63
2021/12/02 07:44:52;;;;;;;3.40;1.30;;;1.50;99.90;;;;;;4916085;29;20477;-63
2021/12/02 07:47:21;;;;;;;4.50;0.90;;;1.50;99.90;;;;;;4916112;29;21261;-63
2021/12/02 07:49:50;;;;;;;4.60;1.20;;;1.50;99.90;;;;;;4909291;29;20485;-63
2021/12/02 07:52:21;;;;;;;4.70;1.50;;;1.50;99.90;;;;;;4911008;29;20480;-66
2021/12/02 07:54:51;;;;;;;3.53;1.40;;;1.50;99.90;;;;;;4915517;29;20561;-65
2021/12/02 07:57:20;;;;;;;7.43;1.47;;;1.50;99.90;;;;;;4911644;29;20987;-65
2021/12/02 07:59:50;;;;;;;5.63;1.10;;;1.60;99.90;;;;;;4914080;29;20482;-67
2021/12/02 08:02:18;;;;;;;3.40;1.20;;;1.60;99.90;;;;;;4912256;29;20485;-65
2021/12/02 08:04:46;;;;;;;6.60;1.30;;;1.60;99.90;;;;;;4918801;29;20990;-65
2021/12/02 08:07:16;;;;;;;6.60;1.80;;;1.70;99.90;;;;;;4913394;29;20513;-67
2021/12/02 08:09:44;;;;;;;5.87;1.20;;;1.80;99.90;;;;;;4918566;29;20476;-66
2021/12/02 08:12:12;;;;;;;3.60;1.07;;;1.80;99.90;;;;;;4916569;29;20524;-66
2021/12/02 08:14:41;;;;;;;4.37;1.00;;;1.90;99.90;;;;;;4899250;29;20477;-66
2021/12/02 08:17:09;;;;;;;8.10;1.43;;;2.00;99.90;;;;;;4908365;29;20922;-64
2021/12/02 08:19:37;;;;;;;2.43;1.03;;;2.10;99.90;;;;;;4906950;29;20484;-67
2021/12/02 08:22:05;;;;;;;4.73;1.03;;;2.10;99.90;;;;;;4915738;29;20484;-65
2021/12/02 08:24:35;;;;;;;8.30;1.47;;;2.20;99.90;;;;;;4912743;29;20855;-66
2021/12/02 08:27:03;;;;;;;3.37;1.10;;;2.20;99.90;;;;;;4906856;29;20495;-66
2021/12/02 08:29:32;;;;;;;4.07;1.20;;;2.20;99.90;;;;;;4907185;29;20492;-64
2021/12/02 08:32:02;;;;;;;4.43;1.60;;;2.20;99.90;;;;;;4911001;29;20480;-66
2021/12/02 08:34:30;;;;;;;6.23;1.43;;;2.20;99.90;;;;;;4904152;29;20500;-66
2021/12/02 08:36:58;;;;;;;3.10;1.30;;;2.20;99.90;;;;;;4906996;29;20504;-66
2021/12/02 08:39:28;;;;;;;4.80;1.40;;;2.20;99.90;;;;;;4908286;29;20496;-65
2021/12/02 08:41:58;;;;;;;4.00;1.50;;;2.10;99.90;;;;;;4915817;29;20480;-66
2021/12/02 08:44:29;;;;;;;3.53;1.60;;;2.20;99.90;;;;;;4917244;29;20800;-66
2021/12/02 08:46:58;;;;;;;6.73;1.87;;;2.20;99.90;;;;;;4904709;29;20477;-66
2021/12/02 08:49:26;;;;;;;4.93;1.90;;;2.20;99.90;;;;;;4908342;29;20492;-66
2021/12/02 08:51:54;;;;;;;8.00;2.03;;;2.30;99.90;;;;;;4907868;29;20505;-65
2021/12/02 08:54:22;;;;;;;4.40;2.10;;;2.30;99.90;;;;;;4914803;29;20917;-65
2021/12/02 08:56:50;;;;;;;2.30;1.50;;;2.40;99.90;;;;;;4909500;29;20481;-66
2021/12/02 08:59:20;;;;;;;3.10;1.77;;;2.50;99.90;;;;;;4916408;29;20539;-65
2021/12/02 09:01:48;;;;;;;4.80;1.60;;;2.40;99.90;;;;;;4912209;29;20481;-66
2021/12/02 09:04:17;;;;;;;5.63;1.73;;;2.40;99.90;;;;;;4907212;29;20504;-65
2021/12/02 09:06:45;;;;;;;5.33;1.60;;;2.30;99.90;;;;;;4910014;29;20481;-66
2021/12/02 09:09:13;;;;;;;3.73;1.47;;;2.30;99.90;;;;;;4919252;29;20495;-66
2021/12/02 09:11:41;;;;;;;6.13;1.30;;;2.40;99.90;;;;;;4901576;29;20484;-65
2021/12/02 09:14:09;;;;;;;2.73;1.20;;;2.40;99.90;;;;;;4911012;29;20485;-67
2021/12/02 09:16:40;;;;;;;7.23;1.50;;;2.30;99.90;;;;;;4908939;29;20473;-65
2021/12/02 09:19:08;;;;;;;3.33;1.47;;;2.40;99.90;;;;;;4908650;29;20845;-65
2021/12/02 09:21:37;;;;;;;5.70;1.53;;;2.40;99.90;;;;;;4907560;29;20481;-65
2021/12/02 09:24:05;;;;;;;1.73;1.00;;;2.40;99.90;;;;;;4912564;29;20508;-66
2021/12/02 09:26:34;;;;;;;4.90;1.07;;;2.40;99.90;;;;;;4907171;29;20549;-65
2021/12/02 09:29:02;;;;;;;3.37;1.30;;;2.50;99.90;;;;;;4915962;29;20492;-66
2021/12/02 09:31:31;;;;;;;7.23;1.60;;;2.50;99.90;;;;;;4897562;29;20492;-66
2021/12/02 09:34:01;;;;;;;5.13;1.40;;;2.60;99.90;;;;;;4906969;29;20483;-65
2021/12/02 09:36:29;;;;;;;8.77;1.90;;;2.70;99.90;;;;;;4908230;29;21131;-64
2021/12/02 09:38:57;;;;;;;5.20;1.23;;;2.70;99.90;;;;;;4909483;29;20478;-64
2021/12/02 09:41:29;;;;;;;5.77;1.17;;;2.70;99.90;;;;;;4910277;29;20882;-65
2021/12/02 09:43:57;;;;;;;5.93;1.50;;;2.80;99.90;;;;;;4912178;29;20488;-64
2021/12/02 09:46:25;;;;;;;2.23;1.10;;;2.80;99.90;;;;;;4905173;29;20489;-65
2021/12/02 09:48:55;;;;;;;5.90;1.17;;;2.90;99.90;;;;;;4910111;29;20488;-66
2021/12/02 09:51:29;;;;;;;6.23;2.03;;;2.80;99.90;;;;;;4912893;29;20491;-64
2021/12/02 09:54:18;;;;;;;3.93;1.33;;;2.90;99.90;;;;;;4911769;29;20864;-64
2021/12/02 09:56:49;;;;;;;4.03;1.27;;;3.00;99.90;;;;;;4907644;29;20485;-67
2021/12/02 09:59:26;;;;;;;7.33;1.40;;;2.90;99.90;;;;;;4916969;29;20579;-66
2021/12/02 10:01:59;;;;;;;6.00;1.07;;;3.00;99.90;;;;;;4914064;29;20571;-66
2021/12/02 10:04:28;;;;;;;3.73;1.20;;;3.00;99.90;;;;;;4921221;29;20883;-66
2021/12/02 10:07:12;;;;;;;5.30;1.07;;;3.00;99.90;;;;;;4915591;29;21053;-66
2021/12/02 10:09:44;;;;;;;7.13;1.10;;;3.00;99.90;;;;;;4906067;29;20596;-67
2021/12/02 10:12:16;;;;;;;3.10;1.00;;;3.10;99.90;;;;;;4918738;29;20496;-66
2021/12/02 10:14:52;;;;;;;2.90;1.17;;;3.20;99.90;;;;;;4920885;29;20525;-65
2021/12/02 10:17:27;;;;;;;3.33;1.10;;;3.20;99.90;;;;;;4913702;29;20647;-66
2021/12/02 10:20:14;;;;;;;5.73;1.30;;;3.30;99.90;;;;;;4911177;29;21139;-65
2021/12/02 10:23:00;;;;;;;5.20;1.20;;;3.50;99.90;;;;;;4919764;29;20526;-65
2021/12/02 10:25:32;;;;;;;4.40;1.20;;;3.60;99.90;;;;;;4917946;29;20488;-64
2021/12/02 10:28:06;;;;;;;5.03;1.10;;;3.70;99.90;;;;;;4909589;29;20483;-66
2021/12/02 10:30:39;;;;;;;4.50;1.23;;;3.80;99.90;;;;;;4909839;29;20484;-65
2021/12/02 10:33:09;;;;;;;5.70;1.90;;;3.80;99.90;;;;;;4910078;29;21076;-65
2021/12/02 10:35:41;;;;;;;5.07;1.30;;;3.80;99.90;;;;;;4912834;29;20490;-66
2021/12/02 10:38:33;;;;;;;5.43;1.30;;;4.00;99.90;;;;;;4914498;29;21045;-66
2021/12/02 10:41:03;;;;;;;4.73;1.20;;;4.00;99.90;;;;;;4904224;29;20528;-66
2021/12/02 10:43:32;;;;;;;3.23;1.30;;;4.00;99.90;;;;;;4913225;29;20501;-67
2021/12/02 10:46:14;;;;;;;6.23;1.37;;;4.00;99.90;;;;;;4912301;29;20542;-66
2021/12/02 10:48:49;;;;;;;4.97;1.10;;;4.00;99.90;;;;;;4910233;29;20850;-66
2021/12/02 10:51:43;;;;;;;4.77;1.10;;;4.10;99.90;;;;;;4905052;29;20549;-65
2021/12/02 10:54:15;;;;;;;3.60;1.40;;;4.20;99.90;;;;;;4913750;29;20509;-66
2021/12/02 10:56:46;;;;;;;4.53;1.40;;;4.30;99.90;;;;;;4907900;29;21033;-64
2021/12/02 10:59:32;;;;;;;2.70;1.20;;;4.30;99.90;;;;;;4913783;29;21084;-65
2021/12/02 11:02:04;;;;;;;2.67;1.33;;;4.20;99.90;;;;;;4906091;29;20999;-66
2021/12/02 11:04:42;;;;;;;7.47;1.30;;;4.10;99.90;;;;;;4910815;29;21042;-65
2021/12/02 11:07:13;;;;;;;4.37;1.40;;;4.00;99.90;;;;;;4914603;29;20551;-67
2021/12/02 11:09:43;;;;;;;5.20;1.53;;;3.90;99.90;;;;;;4900560;29;20590;-66
2021/12/02 11:12:17;;;;;;;5.40;1.53;;;3.90;99.90;;;;;;4915594;29;20480;-65
2021/12/02 11:15:06;;;;;;;4.17;1.27;;;3.80;99.90;;;;;;4908722;29;20492;-65
2021/12/02 11:17:36;;;;;;;2.77;1.30;;;3.70;99.90;;;;;;4911121;29;20603;-66
2021/12/02 11:20:07;;;;;;;6.20;1.40;;;3.80;99.90;;;;;;4909070;29;20533;-65
2021/12/02 11:22:36;;;;;;;4.50;1.30;;;3.70;99.90;;;;;;4896379;29;20883;-64
2021/12/02 11:25:10;;;;;;;5.80;1.47;;;3.80;99.90;;;;;;4910616;29;20494;-65
2021/12/02 11:27:41;;;;;;;4.73;1.47;;;3.90;99.90;;;;;;4910215;29;20488;-65
2021/12/02 11:30:12;;;;;;;3.47;1.23;;;3.90;99.90;;;;;;4911166;29;20646;-65
2021/12/02 11:32:47;;;;;;;5.53;1.60;;;3.80;99.90;;;;;;4911045;29;20493;-66
2021/12/02 11:35:23;;;;;;;4.20;1.37;;;3.80;99.90;;;;;;4908857;29;20581;-65
2021/12/02 11:37:54;;;;;;;4.80;1.30;;;3.80;99.90;;;;;;4909604;29;21025;-66
2021/12/02 11:40:27;;;;;;;7.27;1.53;;;3.90;99.90;;;;;;4910684;29;20503;-66
2021/12/02 11:42:56;;;;;;;5.37;1.30;;;3.90;99.90;;;;;;4911483;29;20480;-66
2021/12/02 11:45:26;;;;;;;5.30;1.30;;;3.80;99.90;;;;;;4909781;29;20588;-64
2021/12/02 11:47:55;;;;;;;5.17;1.60;;;3.90;99.90;;;;;;4909105;29;21163;-65
2021/12/02 11:50:26;;;;;;;6.33;1.50;;;3.90;99.90;;;;;;4910817;29;21056;-65
2021/12/02 11:52:54;;;;;;;4.90;1.30;;;3.90;99.90;;;;;;4913316;29;21044;-65
2021/12/02 11:55:29;;;;;;;4.10;1.10;;;3.90;99.90;;;;;;4918540;29;20565;-65
2021/12/02 11:57:58;;;;;;;3.33;1.33;;;4.00;99.90;;;;;;4915277;29;20513;-65
2021/12/02 12:00:28;;;;;;;6.67;1.47;;;3.80;99.90;;;;;;4916226;29;20591;-65
2021/12/02 12:03:02;;;;;;;3.97;1.07;;;3.80;99.90;;;;;;4916053;29;20484;-65
2021/12/02 12:05:33;;;;;;;3.10;1.40;;;3.80;99.90;;;;;;4913917;29;20495;-65
2021/12/02 12:08:02;;;;;;;7.50;1.33;;;3.70;99.90;;;;;;4898458;29;20570;-66
2021/12/02 12:10:38;;;;;;;4.07;1.73;;;3.80;99.90;;;;;;4911705;29;20494;-65
2021/12/02 12:13:16;;;;;;;5.60;1.27;;;3.80;99.90;;;;;;4914427;29;20569;-64
2021/12/02 12:15:46;;;;;;;4.00;1.07;;;3.70;99.90;;;;;;4912837;29;20570;-66
2021/12/02 12:18:34;;;;;;;5.10;1.53;;;3.70;99.90;;;;;;4912037;29;20511;-65
2021/12/02 12:21:05;;;;;;;3.93;0.97;;;3.80;99.90;;;;;;4914368;29;20542;-65
2021/12/02 12:23:42;;;;;;;6.70;1.20;;;3.70;99.90;;;;;;4913545;29;20855;-65
2021/12/02 12:26:27;;;;;;;7.57;1.87;;;3.70;99.90;;;;;;4913536;29;20568;-66
2021/12/02 12:29:34;;;;;;;3.40;1.23;;;3.70;99.90;;;;;;4911442;29;20926;-65
2021/12/02 12:32:38;;;;;;;5.73;1.33;;;3.60;99.90;;;;;;4914889;29;20850;-66
2021/12/02 12:35:14;;;;;;;3.57;0.93;;;3.60;99.90;;;;;;4914222;29;20562;-67
2021/12/02 12:37:52;;;;;;;2.73;1.10;;;3.60;99.90;;;;;;4914237;29;20489;-66
2021/12/02 12:40:40;;;;;;;4.03;1.00;;;3.60;99.90;;;;;;4911044;29;20491;-67
2021/12/02 12:43:35;;;;;;;3.90;1.00;;;3.50;99.90;;;;;;4913670;29;20582;-66
2021/12/02 12:46:16;;;;;;;4.47;1.07;;;3.40;99.90;;;;;;4908451;29;20519;-66
2021/12/02 12:48:46;;;;;;;4.80;1.10;;;3.50;99.90;;;;;;4909087;29;20495;-65
2021/12/02 12:51:29;;;;;;;3.73;1.07;;;3.50;99.90;;;;;;4911213;29;20481;-65
2021/12/02 12:54:02;;;;;;;5.03;1.10;;;3.50;99.90;;;;;;4908725;29;20483;-65
2021/12/02 12:56:33;;;;;;;2.50;0.90;;;3.50;99.90;;;;;;4914079;29;21023;-66
2021/12/02 12:59:06;;;;;;;2.83;1.10;;;3.50;99.90;;;;;;4910710;29;20512;-66
2021/12/02 13:01:36;;;;;;;3.80;1.03;;;3.50;99.90;;;;;;4914357;29;20507;-66
2021/12/02 13:04:16;;;;;;;4.33;1.10;;;3.50;99.90;;;;;;4913574;29;20482;-65
2021/12/02 13:07:10;;;;;;;4.43;0.90;;;3.50;99.90;;;;;;4912734;29;21148;-66
2021/12/02 13:09:44;;;;;;;4.13;1.03;;;3.40;99.90;;;;;;4907267;29;20485;-66
2021/12/02 13:12:15;;;;;;;5.87;1.00;;;3.40;99.90;;;;;;4913832;29;20487;-64
2021/12/02 13:14:46;;;;;;;3.90;0.90;;;3.30;99.90;;;;;;4908447;29;20497;-65
2021/12/02 13:17:37;;;;;;;2.67;1.03;;;3.30;99.90;;;;;;4907515;29;20484;-66
2021/12/02 13:20:32;;;;;;;4.80;1.13;;;3.30;99.90;;;;;;4903561;29;20861;-66
2021/12/02 13:23:40;;;;;;;4.73;1.10;;;3.30;99.90;;;;;;4906205;29;20491;-66
2021/12/02 13:26:32;;;;;;;2.87;0.90;;;3.30;99.90;;;;;;4911577;29;20586;-65